Weather observations for the past three days for
Beeville Municipal Airport
Metric (Imperial)
Date Time (cdt) Wind (kph) Vis. (km) Weather Sky Cond. Temperature (ºC) Relative Humidity Wind Chill (°C) Heat Index (°C) Pressure Precipitation (cm)
Air Dwpt 6 hour altimeter (cm) sea level (mb) 1 hr 3 hr 6 hr
Max. Min.
25 00:15 SE 9 16.09 Overcast OVC011 26.5 25 92% 29 75.59 0.0
24 23:55 SE 7 16.09 Partly Cloudy SCT013 26.5 25 92% 29 75.57 0.0
24 23:35 SE 13 16.09 Fair CLR 26.6 25 91% 30 75.57 0.0
24 23:15 SE 13 16.09 Fair CLR 26.7 24.8 89% 30 75.54 0.0
24 22:55 SE 15 16.09 Partly Cloudy SCT011 26.8 24.7 88% 30 75.54 0.0
24 22:35 SE 13 16.09 Partly Cloudy SCT011 27 24.7 87% 30 75.51 0.0
24 22:15 SE 13 16.09 Partly Cloudy SCT013 27.2 24.6 86% 31 75.49 0.0
24 21:55 SE 17 16.09 Partly Cloudy SCT013 27.3 24.5 85% 31 75.49 0.0
24 21:35 SE 22 G 28 16.09 Fair CLR 27.6 24.2 82% 31 75.46 0.0
24 21:15 SE 20 16.09 Fair CLR 27.9 23.6 78% 31 75.46 0.0
24 20:55 SE 15 16.09 Fair CLR 28.2 23.2 74% 32 75.44 0.0
24 20:35 SE 20 G 31 16.09 Fair CLR 28.5 23 72% 32 75.44 0.0
24 20:15 SE 19 G 28 16.09 Fair CLR 29.1 22.6 68% 33 75.41 0.0
24 19:55 SE 20 G 33 16.09 Fair CLR 29.6 22.5 66% 33 75.41 0.0
24 19:35 SE 19 G 30 16.09 Fair CLR 30.6 22.6 62% 35 75.41 0.0
24 19:15 SE 20 G 28 16.09 Fair CLR 31 23.1 63% 36 75.41 0.0
24 18:55 SE 22 16.09 Fair CLR 31.6 23.3 35.8 31.6 61% 37 75.41 0.0
24 18:35 SE 20 16.09 Fair CLR 32.1 23.3 60% 37 75.41 0.0
24 18:15 SE 20 G 30 16.09 Fair CLR 33 23.5 57% 39 75.39 0.0
24 17:55 SE 20 G 31 16.09 Fair CLR 33 23.6 58% 39 75.39 0.0
24 17:35 SE 19 16.09 Partly Cloudy SCT030 33.3 23.6 57% 39 75.41 0.0
24 17:15 SE 19 G 33 16.09 Partly Cloudy SCT032 33.8 23.6 55% 40 75.41 0.0
24 16:55 SE 20 G 31 16.09 Partly Cloudy SCT034 34.1 23.6 54% 40 75.41 0.0
24 16:35 SE 26 G 35 16.09 Partly Cloudy SCT034 34.7 23.6 52% 41 75.41 0.0
24 16:15 S 24 G 35 16.09 Partly Cloudy SCT034 35 23.4 51% 41 75.41 0.0
24 15:55 SE 24 G 35 16.09 Partly Cloudy SCT034 34.7 23.4 52% 41 75.44 0.0
24 15:35 S 28 G 39 16.09 Partly Cloudy SCT036 34.9 23.1 50% 41 75.46 0.0
24 15:15 S 26 G 37 16.09 Partly Cloudy SCT036 34.8 22.9 50% 40 75.46 0.0
24 14:55 SE 20 G 33 16.09 Mostly Cloudy BKN036 34.7 22.7 50% 40 75.49 0.0
24 14:35 SE 22 G 41 16.09 Partly Cloudy SCT036 34.7 22.8 50% 40 75.51 0.0
24 14:15 S 28 G 39 16.09 Fair CLR 35 22.7 49% 40 75.51 0.0
24 13:55 SE 26 G 37 16.09 Fair CLR 35 22.2 47% 40 75.51 0.0
24 13:35 S 20 G 43 16.09 Partly Cloudy SCT040 35 22 47% 39 75.57 0.0
24 13:15 SE 22 G 37 16.09 Fair CLR 35 21.8 46% 39 75.57 0.0
24 12:55 S 28 G 39 16.09 Fair CLR 35.1 21.9 46% 39 75.59 0.0
24 12:35 S 26 G 37 16.09 Fair CLR 34.6 21.8 47% 39 75.59 0.0
24 11:55 S 28 G 41 16.09 Fair CLR 33.5 21.9 51% 38 75.59 0.0
24 11:35 S 28 G 35 16.09 Fair CLR 33.2 22.2 52% 37 75.59 0.0
24 11:15 SE 20 G 31 16.09 Fair CLR 32.6 22.6 56% 37 75.62 0.0
24 10:55 S 28 G 35 16.09 Fair CLR 31.9 22.6 58% 36 75.62 0.0
24 10:35 S 20 G 31 16.09 Fair CLR 31.5 22.5 59% 36 75.62 0.0
24 10:15 SE 22 16.09 Partly Cloudy SCT021 30.8 22.8 62% 35 75.62 0.0
24 09:55 S 17 0.00 NULL NULL 0 0 0% 75.62 0.0
24 09:35 S 17 16.09 Partly Cloudy SCT016 29.1 23.4 71% 33 75.62 0.0
24 09:15 S 19 16.09 Mostly Cloudy BKN014 28.6 23.5 74% 33 75.62 0.0
24 08:55 S 28 16.09 Overcast OVC014 28.2 23.6 76% 32 75.59 0.0
24 08:35 SE 24 G 31 16.09 Overcast OVC014 28 23.7 78% 32 75.59 0.0
24 08:15 S 22 G 28 16.09 Overcast OVC014 27.2 24 83% 30 75.57 0.0
24 07:55 SE 19 G 28 16.09 Overcast OVC016 27 24 84% 30 75.57 0.0
24 07:35 SE 15 16.09 Overcast OVC016 26.8 24 85% 30 75.54 0.0
24 07:15 SE 15 16.09 Overcast OVC016 26.7 24 85% 29 75.54 0.0
24 06:55 SE 15 16.09 Overcast OVC016 26.7 24.1 27 26.3 86% 30 75.51 0.0
24 06:35 SE 13 16.09 Overcast OVC016 26.7 24.1 86% 30 75.49 0.0
24 06:15 S 15 16.09 Overcast OVC016 26.8 24 85% 30 75.49 0.0
24 05:55 S 15 16.09 Overcast OVC016 26.8 24 85% 30 75.46 0.0
24 05:35 S 17 16.09 Overcast OVC016 26.8 24 85% 30 75.46 0.0
24 05:15 S 17 16.09 Overcast OVC016 26.9 24.1 85% 30 75.49 0.0
24 04:55 S 20 16.09 Overcast BKN016 OVC021 27 24.1 84% 30 75.49 0.0
24 04:35 S 20 G 33 16.09 Overcast OVC016 27 24 84% 30 75.49 0.0
24 04:15 S 17 G 28 16.09 Overcast OVC016 26.9 24 84% 30 75.49 0.0
24 03:55 S 17 G 26 16.09 Overcast OVC014 26.8 24.1 85% 30 75.49 0.0
24 03:35 SE 17 G 26 16.09 Overcast OVC016 26.5 24.2 87% 29 75.49 0.0
24 03:15 SE 15 16.09 Overcast BKN016 OVC021 26.6 24.3 87% 29 75.49 0.0
24 02:55 SE 17 16.09 Overcast BKN014 OVC020 26.5 24.3 88% 29 75.49 0.0
24 02:35 SE 17 16.09 Overcast OVC014 26.6 24.3 87% 29 75.51 0.0
24 02:15 SE 17 G 26 16.09 Overcast BKN014 OVC021 26.5 24.2 87% 29 75.54 0.0
24 01:55 SE 15 16.09 Partly Cloudy SCT014 SCT019 26.3 24.1 88% 29 75.57 0.0
24 01:35 SE 19 G 28 16.09 Partly Cloudy SCT015 SCT020 26.5 24 86% 29 75.57 0.0
24 01:15 SE 19 16.09 Mostly Cloudy BKN017 26.5 24 86% 29 75.57 0.0
24 00:55 SE 19 16.09 Mostly Cloudy BKN018 26.7 23.9 30.8 26.7 85% 29 75.59 0.0
24 00:35 SE 20 G 30 16.09 Overcast OVC016 26.8 23.8 84% 30 75.62 0.0
24 00:15 SE 19 16.09 Overcast BKN016 OVC020 26.9 23.8 83% 30 75.64 0.0
23 23:55 SE 19 16.09 Overcast OVC014 26.8 24 85% 30 75.67 0.0
23 23:35 SE 13 16.09 Mostly Cloudy BKN014 BKN019 26.8 23.8 84% 30 75.67 0.0
23 23:15 SE 22 G 30 16.09 Mostly Cloudy BKN016 26.7 23.8 84% 29 75.64 0.0
23 22:55 SE 17 G 30 16.09 Mostly Cloudy BKN016 26.7 23.6 83% 29 75.64 0.0
23 22:35 SE 20 G 31 16.09 Mostly Cloudy BKN016 26.7 23.6 83% 29 75.62 0.0
23 22:15 SE 20 G 31 16.09 Overcast OVC016 27 23.5 81% 30 75.59 0.0
23 21:55 SE 19 G 31 16.09 Overcast OVC016 27.2 23.5 80% 30 75.57 0.0
23 21:35 SE 20 G 31 16.09 Overcast OVC018 27.3 23.4 79% 30 75.57 0.0
23 21:15 SE 17 G 26 16.09 Mostly Cloudy BKN018 27.4 23.2 78% 30 75.57 0.0
23 20:55 SE 20 G 31 16.09 Partly Cloudy SCT018 27.5 23 77% 30 75.54 0.0
23 20:35 SE 26 G 35 16.09 Fair CLR 27.9 22.7 73% 31 75.49 0.0
23 20:15 SE 24 G 41 16.09 Fair CLR 28.2 22.5 71% 31 75.46 0.0
23 19:55 SE 28 G 37 16.09 Fair CLR 28.7 22.2 68% 32 75.46 0.0
23 19:35 SE 26 G 43 16.09 Fair CLR 29.3 21.9 64% 32 75.46 0.0
23 19:15 SE 26 G 37 16.09 Fair CLR 30.1 21.5 60% 33 75.44 0.0
23 18:55 SE 28 G 39 16.09 Fair CLR 30.9 20.7 34.4 30.9 55% 33 75.44 0.0
23 18:35 SE 24 G 31 16.09 Fair CLR 31.7 20.7 52% 34 75.44 0.0
23 18:15 S 30 G 39 16.09 Fair CLR 32.2 20.5 50% 35 75.44 0.0
23 17:55 SE 30 G 37 16.09 Fair CLR 32.9 20.1 47% 35 75.44 0.0
23 17:35 SE 28 G 43 16.09 Fair CLR 33.7 20.4 46% 36 75.44 0.0
23 17:15 SE 26 G 43 16.09 Fair CLR 33.5 21 48% 37 75.46 0.0
23 16:55 SE 24 G 37 16.09 Partly Cloudy SCT034 32.9 21.8 52% 37 75.49 0.0
23 16:35 SE 30 G 46 16.09 Mostly Cloudy BKN036 BKN043 33 22.2 53% 37 75.51 0.0
23 16:15 SE 30 G 39 16.09 Mostly Cloudy BKN034 BKN043 33.3 22.1 52% 37 75.54 0.0
23 15:55 SE 28 G 41 16.09 Partly Cloudy SCT038 SCT046 33.3 22.1 52% 37 75.54 0.0
23 15:35 S 31 G 44 16.09 Partly Cloudy SCT038 SCT046 33.9 21.7 49% 38 75.54 0.0
23 15:15 SE 30 G 41 16.09 Partly Cloudy SCT040 SCT046 33.6 21.5 49% 37 75.57 0.0
23 14:55 SE 30 G 43 16.09 Partly Cloudy SCT038 SCT047 34.1 21.8 49% 38 75.57 0.0
23 14:35 S 31 G 39 16.09 Mostly Cloudy BKN038 BKN047 33.8 21.6 49% 38 75.59 0.0
23 14:15 SE 31 G 43 16.09 Mostly Cloudy BKN036 BKN043 33.4 21.4 49% 37 75.62 0.0
23 13:55 S 31 G 43 16.09 Mostly Cloudy SCT036 BKN043 34.1 22 49% 38 75.64 0.0
23 13:35 SE 35 G 48 16.09 Mostly Cloudy and Breezy SCT038 BKN043 BKN050 33.2 21.6 51% 37 75.64 0.0
23 13:15 S 28 G 43 16.09 Mostly Cloudy BKN036 33 21.6 51% 37 75.67 0.0
23 12:55 SE 31 G 39 16.09 Partly Cloudy SCT036 SCT043 33.8 21.7 34 26 49% 38 75.67 0.0
23 12:35 SE 22 G 33 16.09 Partly Cloudy SCT036 33.6 21.8 50% 38 75.67 0.0
23 12:15 SE 24 G 46 16.09 Partly Cloudy SCT032 33.3 21.8 51% 37 75.67 0.0
23 11:55 SE 31 G 43 16.09 Partly Cloudy SCT032 32.5 21.6 53% 36 75.67 0.0
23 11:35 S 31 G 39 16.09 Partly Cloudy SCT028 SCT037 32.4 22.1 55% 36 75.67 0.0
23 11:15 SE 31 G 39 16.09 Mostly Cloudy BKN028 BKN034 31.7 22.3 57% 36 75.69 0.0
23 10:55 S 31 G 39 16.09 Partly Cloudy SCT026 SCT034 31.8 22.1 56% 36 75.67 0.0
23 10:35 S 28 G 33 16.09 Mostly Cloudy SCT023 BKN028 29.7 22.5 65% 33 75.69 0.0
23 10:15 S 22 G 33 16.09 Mostly Cloudy BKN021 BKN028 29.5 23.1 69% 34 75.69 0.0
23 09:55 SE 20 G 33 16.09 Mostly Cloudy BKN023 BKN028 29.5 23.3 69% 34 75.69 0.0
23 09:35 S 26 G 44 16.09 Mostly Cloudy SCT020 BKN027 29.2 23.1 70% 33 75.67 0.0
23 09:15 S 22 G 39 16.09 Overcast BKN016 OVC022 28.5 23.9 76% 33 75.69 0.0
23 08:55 SE 20 G 35 16.09 Overcast BKN016 OVC022 28.2 24 78% 32 75.67 0.0
23 08:35 SE 20 G 33 16.09 Mostly Cloudy BKN014 27.8 23.9 79% 32 75.64 0.0
23 08:15 SE 22 G 28 16.09 Partly Cloudy SCT012 27.5 24.4 83% 31 75.62 0.0
23 07:55 SE 17 16.09 Fair CLR 26.9 24.5 87% 30 75.62 0.0
23 07:35 SE 19 16.09 Fair CLR 26.2 24.5 90% 29 75.62 0.0
23 07:15 SE 13 16.09 Fair CLR 26 24.5 91% 28 75.62 0.0
23 06:55 SE 15 16.09 Partly Cloudy SCT028 26 24.3 26.7 25.7 90% 28 75.62 0.0
23 06:35 SE 13 16.09 Mostly Cloudy SCT012 BKN028 26.1 24.4 90% 28 75.62 0.0
23 06:15 SE 11 16.09 Mostly Cloudy BKN010 BKN017 BKN024 26.2 24.5 90% 29 75.64 0.0
23 05:55 SE 13 16.09 Overcast BKN010 BKN014 OVC025 26.5 24.5 89% 29 75.62 0.0
23 05:35 SE 17 16.09 Overcast BKN012 BKN020 OVC030 26.5 24.3 88% 29 75.62 0.0
23 05:15 SE 17 16.09 Overcast BKN014 BKN024 OVC028 26.3 24.2 88% 29 75.62 0.0
23 04:55 SE 15 16.09 Mostly Cloudy SCT016 SCT021 BKN028 26 24.1 89% 28 75.62 0.0
23 04:35 SE 11 16.09 Mostly Cloudy SCT014 SCT021 BKN028 25.8 24.1 90% 28 75.59 0.0
23 04:15 SE 11 16.09 Fair CLR 25.7 24 90% 27 75.59 0.0
23 03:55 E 15 16.09 Fair CLR 25.7 24.1 91% 27 75.59 0.0
23 03:35 SE 15 16.09 Fair CLR 26 24.2 90% 28 75.59 0.0
23 03:15 SE 13 G 26 16.09 Fair CLR 26 24.2 90% 28 75.59 0.0
23 02:55 E 19 16.09 Fair CLR 26 24.2 90% 28 75.62 0.0
23 02:35 E 15 16.09 Fair CLR 26 24.5 91% 28 75.64 0.0
23 02:15 E 11 16.09 Fair CLR 26.1 24.3 90% 28 75.69 0.0
23 01:55 E 11 16.09 Partly Cloudy SCT015 SCT024 SCT032 26.5 24.2 87% 29 75.72 0.0
23 01:35 E 11 16.09 Overcast BKN017 BKN021 OVC026 26.7 24.3 87% 30 75.74 0.0
23 01:15 SE 7 16.09 Overcast OVC015 26.5 24.5 89% 29 75.79 0.0
23 00:55 SE 9 16.09 Overcast OVC015 26.6 24.5 30 26.1 88% 29 75.77 0.0
23 00:35 E 11 16.09 Overcast OVC011 26.5 24.5 89% 29 75.74 0.0
23 00:15 E 9 16.09 Overcast OVC013 26.3 24.3 89% 29 75.72 0.0
22 23:55 E 11 16.09 Mostly Cloudy BKN013 26.1 24.2 89% 28 75.69 0.0
22 23:35 E 11 16.09 Partly Cloudy SCT013 26.2 24 88% 28 75.67 0.0
22 23:15 E 13 16.09 Fair CLR 26.3 24 87% 29 75.67 0.0
22 22:55 E 13 16.09 Fair CLR 26.6 24 86% 29 75.64 0.0
22 22:35 SE 17 16.09 Fair CLR 26.8 24.1 85% 30 75.64 0.0
22 22:15 SE 15 16.09 Fair CLR 26.8 24.1 85% 30 75.62 0.0
22 21:55 SE 17 16.09 Fair CLR 27 24.1 84% 30 75.62 0.0
22 21:35 SE 17 16.09 Fair CLR 27.3 24.2 83% 31 75.62 0.0
22 21:15 SE 15 16.09 Fair CLR 27.5 24.2 82% 31 75.59 0.0
22 20:55 SE 17 16.09 Fair CLR 27.7 24.3 82% 32 75.54 0.0
22 20:35 SE 20 G 31 16.09 Partly Cloudy SCT016 28 24.5 81% 32 75.51 0.0
22 20:15 SE 24 G 37 16.09 Partly Cloudy SCT018 28.3 24.3 79% 33 75.49 0.0
22 19:55 SE 20 G 35 16.09 Mostly Cloudy BKN018 28.7 24.1 76% 33 75.46 0.0
22 19:35 SE 30 G 39 16.09 Mostly Cloudy BKN020 29.1 24.1 74% 34 75.44 0.0
22 19:15 SE 28 G 39 16.09 Partly Cloudy SCT020 29.4 24 73% 34 75.41 0.0
22 18:55 SE 30 G 39 16.09 Partly Cloudy SCT020 30.1 23.9 33.9 30.1 69% 35 75.41 0.0
22 18:35 SE 22 G 41 16.09 Partly Cloudy SCT022 30.2 23.7 68% 35 75.41 0.0
22 18:15 SE 31 G 41 16.09 Partly Cloudy SCT022 SCT027 30.6 24 68% 36 75.41 0.0
22 17:55 SE 30 G 39 16.09 Partly Cloudy SCT027 31 23.8 66% 36 75.44 0.0
22 17:35 SE 24 G 35 16.09 Mostly Cloudy BKN029 BKN033 31.3 23.6 64% 36 75.49 0.0
22 17:15 SE 22 G 37 16.09 Mostly Cloudy SCT027 BKN032 31.9 23.6 61% 37 75.49 0.0
22 16:55 SE 28 G 37 16.09 Mostly Cloudy BKN032 32.2 23.5 60% 38 75.46 0.0
22 16:35 SE 24 G 41 16.09 Mostly Cloudy BKN034 33.1 23.3 56% 39 75.46 0.0
22 16:15 SE 24 G 37 16.09 Mostly Cloudy BKN032 32.8 23 56% 38 75.51 0.0
22 15:55 SE 31 G 41 16.09 Mostly Cloudy BKN032 BKN040 33.3 23 55% 38 75.51 0.0
22 15:35 SE 31 G 37 16.09 Mostly Cloudy BKN032 BKN041 33.1 22.9 55% 38 75.57 0.0
22 15:15 SE 30 G 43 16.09 Mostly Cloudy SCT032 BKN039 33.2 22.9 55% 38 75.59 0.0
22 14:55 S 28 G 39 16.09 Mostly Cloudy SCT032 BKN039 33.5 22.9 54% 39 75.62 0.0
22 14:35 SE 28 G 43 16.09 Mostly Cloudy BKN033 BKN039 33.3 22.8 54% 38 75.64 0.0
22 14:15 SE 30 G 39 16.09 Mostly Cloudy BKN033 BKN041 33.7 22.7 53% 39 75.64 0.0
22 13:55 S 31 G 43 16.09 Partly Cloudy SCT033 33.8 22.4 51% 38 75.62 0.0
22 13:35 SE 26 G 39 16.09 Mostly Cloudy BKN033 33.2 22.8 54% 38 75.67 0.0
22 13:15 SE 19 G 37 16.09 Partly Cloudy SCT033 SCT038 33.1 22.5 54% 38 75.69 0.0
22 12:55 S 22 G 39 16.09 Mostly Cloudy BKN031 BKN037 32.8 22.5 33 25.1 55% 37 75.69 0.0
22 12:35 S 24 G 44 16.09 Mostly Cloudy BKN029 BKN037 32.5 22.3 55% 37 75.72 0.0
22 12:15 SE 24 G 37 16.09 Partly Cloudy SCT029 SCT035 32.1 22.6 57% 36 75.72 0.0
22 11:55 SE 19 G 28 16.09 Partly Cloudy SCT027 31.7 22.6 59% 36 75.72 0.0
22 11:35 SE 22 G 31 16.09 Partly Cloudy SCT025 31.8 22.9 59% 36 75.74 0.0
22 11:15 SE 19 G 28 16.09 Partly Cloudy SCT023 30.9 22.9 62% 35 75.72 0.0
22 10:55 SE 20 G 30 16.09 Partly Cloudy SCT021 30.8 23.4 65% 36 75.72 0.0
22 10:35 SE 20 G 30 16.09 Partly Cloudy SCT021 29.6 23 68% 34 75.72 0.0
22 10:15 SE 20 G 30 16.09 Mostly Cloudy BKN019 BKN024 29.5 23.2 69% 34 75.74 0.0
22 09:55 SE 20 16.09 Mostly Cloudy BKN017 29 23.4 72% 33 75.74 0.0
22 09:35 SE 22 16.09 Mostly Cloudy BKN015 BKN020 28.7 23.8 75% 33 75.72 0.0
22 09:15 SE 17 16.09 Partly Cloudy SCT013 27.7 24 80% 31 75.72 0.0
22 08:55 SE 17 16.09 Partly Cloudy SCT011 27.1 24.6 86% 31 75.69 0.0
22 08:35 SE 13 16.09 Fair CLR 26.1 24.8 93% 28 75.72 0.0
22 08:15 SE 11 11.27 Fair CLR 25.5 24.6 95% 27 75.69 0.0
22 07:55 SE 9 8.05 Fog/Mist CLR 25.3 24.5 95% 26 75.69 0.0
22 07:35 SE 6 4.02 Fog/Mist SCT025 25.2 24.3 95% 26 75.69 0.0
22 07:15 SE 7 4.02 Fog/Mist SCT025 25.1 24.3 95% 26 75.67 0.0
22 06:55 SE 7 4.02 Fog/Mist SCT006 25.1 24.2 26.2 25.1 95% 26 75.67 0.0
22 06:35 SE 6 6.44 Fog/Mist BKN006 25.2 24.4 95% 26 75.64 0.0
22 06:15 SE 7 6.44 Fog/Mist BKN006 25.3 24.5 95% 26 75.64 0.0
22 05:55 SE 9 6.44 Fog/Mist OVC006 25.5 24.5 94% 27 75.62 0.0
22 05:35 SE 9 6.44 Fog/Mist BKN006 BKN024 25.5 24.5 94% 27 75.62 0.0
22 05:15 SE 13 8.05 Fog/Mist BKN008 BKN014 BKN024 25.5 24.6 95% 27 75.59 0.0
22 04:55 SE 17 8.05 Fog/Mist BKN008 BKN015 OVC022 25.6 24.7 95% 27 75.62 0.0
22 04:35 SE 9 6.44 Fog/Mist SCT010 SCT015 OVC022 25.5 24.6 95% 27 75.64 0.0
22 04:15 SE 7 6.44 Fog/Mist SCT008 SCT020 BKN025 25.5 24.5 94% 27 75.64 0.0
22 03:55 SE 9 6.44 Fog/Mist SCT008 SCT014 25.3 24.5 95% 26 75.64 0.0
22 03:35 SE 9 6.44 Fog/Mist SCT011 SCT017 25.3 24.5 95% 26 75.67 0.0
22 03:15 SE 9 8.05 Fog/Mist SCT011 25.5 24.5 94% 27 75.67 0.0
22 02:55 SE 9 8.05 Fog/Mist SCT011 25.4 24.5 95% 27 75.69 0.0
22 02:35 SE 9 8.05 Fog/Mist SCT013 25.5 24.5 94% 27 75.69 0.0
22 02:15 E 9 8.05 Fog/Mist BKN013 BKN023 BKN029 25.5 24.5 94% 27 75.69 0.0
22 01:55 E 7 8.05 Fog/Mist SCT013 SCT029 25.6 24.5 94% 27 75.74 0.0
22 01:35 E 9 11.27 Partly Cloudy SCT015 SCT034 25.8 24.5 93% 28 75.74 0.0
22 01:15 E 11 11.27 Partly Cloudy SCT034 26.1 24.5 91% 28 75.74 0.0
22 00:55 SE 13 11.27 Fair CLR 26.2 24.5 30.1 26.2 90% 29 75.77 0.0
Date Time (cdt) Wind (kph) Vis. (km) Weather Sky Cond. Air Dwpt Max. Min. Relative Humidity Wind Chill (°C) Heat Index (°C) altimeter (cm) sea level (mb) 1 hr 3 hr 6 hr
6 hour
Temperature (ºC) Pressure Precipitation (cm)